createdAt,value
2022-07-26T00:01:26.000Z,16.89
2022-07-26T00:03:58.821Z,16.87
2022-07-26T00:06:25.898Z,16.84
2022-07-26T00:08:52.506Z,16.80
2022-07-26T00:11:19.542Z,16.79
2022-07-26T00:13:46.530Z,16.75
2022-07-26T00:16:13.091Z,16.71
2022-07-26T00:18:39.918Z,16.69
2022-07-26T00:21:06.981Z,16.65
2022-07-26T00:23:33.556Z,16.61
2022-07-26T00:26:00.171Z,16.60
2022-07-26T00:28:26.733Z,16.56
2022-07-26T00:30:53.269Z,16.54
2022-07-26T00:33:19.898Z,16.52
2022-07-26T00:35:46.788Z,16.48
2022-07-26T00:38:13.321Z,16.45
2022-07-26T00:40:40.161Z,16.42
2022-07-26T00:43:06.684Z,16.38
2022-07-26T00:45:33.266Z,16.35
2022-07-26T00:47:59.945Z,16.32
2022-07-26T00:50:26.473Z,16.28
2022-07-26T00:52:53.085Z,16.27
2022-07-26T00:55:20.013Z,16.24
2022-07-26T00:57:46.662Z,16.20
2022-07-26T01:00:16.970Z,16.17
2022-07-26T01:02:44.371Z,16.13
2022-07-26T01:05:11.065Z,16.08
2022-07-26T01:07:38.477Z,16.05
2022-07-26T01:10:08.868Z,16.02
2022-07-26T01:12:35.432Z,16.00
2022-07-26T01:15:02.026Z,15.98
2022-07-26T01:17:28.830Z,15.98
2022-07-26T01:19:55.524Z,15.96
2022-07-26T01:22:22.125Z,15.95
2022-07-26T01:24:48.949Z,15.96
2022-07-26T01:27:15.492Z,15.94
2022-07-26T01:29:42.046Z,15.95
2022-07-26T01:32:09.109Z,15.94
2022-07-26T01:34:35.730Z,15.94
2022-07-26T01:37:02.546Z,15.94
2022-07-26T01:39:29.343Z,15.92
2022-07-26T01:41:56.912Z,15.90
2022-07-26T01:44:23.738Z,15.88
2022-07-26T01:46:50.531Z,15.85
2022-07-26T01:49:17.411Z,15.84
2022-07-26T01:51:44.066Z,15.83
2022-07-26T01:54:11.169Z,15.82
2022-07-26T01:56:38.081Z,15.79
2022-07-26T01:59:04.795Z,15.79
2022-07-26T02:01:39.255Z,15.77
2022-07-26T02:04:29.709Z,15.76
2022-07-26T02:06:56.419Z,15.74
2022-07-26T02:09:22.996Z,15.72
2022-07-26T02:11:52.389Z,15.70
2022-07-26T02:14:25.776Z,15.68
2022-07-26T02:16:59.904Z,15.70
2022-07-26T02:19:28.795Z,15.70
2022-07-26T02:21:55.725Z,15.72
2022-07-26T02:24:22.314Z,15.73
2022-07-26T02:26:48.977Z,15.73
2022-07-26T02:29:15.540Z,15.73
2022-07-26T02:31:42.187Z,15.73
2022-07-26T02:34:15.257Z,15.73
2022-07-26T02:36:41.802Z,15.73
2022-07-26T02:39:08.492Z,15.71
2022-07-26T02:41:35.268Z,15.70
2022-07-26T02:44:01.843Z,15.69
2022-07-26T02:46:28.433Z,15.67
2022-07-26T02:48:55.245Z,15.66
2022-07-26T02:51:21.849Z,15.65
2022-07-26T02:53:48.456Z,15.63
2022-07-26T02:56:15.089Z,15.62
2022-07-26T02:58:41.607Z,15.61
2022-07-26T03:01:08.387Z,15.59
2022-07-26T03:03:36.646Z,15.57
2022-07-26T03:06:05.079Z,15.56
2022-07-26T03:08:31.623Z,15.56
2022-07-26T03:10:58.357Z,15.57
2022-07-26T03:13:24.923Z,15.57
2022-07-26T03:15:51.481Z,15.59
2022-07-26T03:18:18.154Z,15.60
2022-07-26T03:20:44.860Z,15.62
2022-07-26T03:23:11.361Z,15.67
2022-07-26T03:25:38.456Z,15.70
2022-07-26T03:28:05.235Z,15.76
2022-07-26T03:30:31.889Z,15.82
2022-07-26T03:32:58.680Z,15.89
2022-07-26T03:35:25.583Z,15.95
2022-07-26T03:37:52.361Z,16.02
2022-07-26T03:40:19.962Z,16.08
2022-07-26T03:42:47.876Z,16.11
2022-07-26T03:45:15.294Z,16.17
2022-07-26T03:47:42.430Z,16.21
2022-07-26T03:50:09.664Z,16.26
2022-07-26T03:52:36.284Z,16.31
2022-07-26T03:55:23.204Z,16.34
2022-07-26T03:57:49.798Z,16.36
2022-07-26T04:00:16.545Z,16.37
2022-07-26T04:02:43.400Z,16.39
2022-07-26T04:05:10.555Z,16.41
2022-07-26T04:07:53.380Z,16.43
2022-07-26T04:10:20.944Z,16.42
2022-07-26T04:12:47.652Z,16.43
2022-07-26T04:15:16.160Z,16.43
2022-07-26T04:17:43.220Z,16.45
2022-07-26T04:20:11.622Z,16.43
2022-07-26T04:22:41.360Z,16.43
2022-07-26T04:25:09.103Z,16.40
2022-07-26T04:27:36.492Z,16.41
2022-07-26T04:30:04.207Z,16.44
2022-07-26T04:32:30.732Z,16.48
2022-07-26T04:34:57.392Z,16.51
2022-07-26T04:37:23.919Z,16.55
2022-07-26T04:39:54.778Z,16.61
2022-07-26T04:42:21.751Z,16.64
2022-07-26T04:44:48.316Z,16.66
2022-07-26T04:47:14.871Z,16.69
2022-07-26T04:49:41.544Z,16.71
2022-07-26T04:52:08.137Z,16.73
2022-07-26T04:54:34.798Z,16.76
2022-07-26T04:57:01.921Z,16.84
2022-07-26T04:59:28.488Z,16.92
2022-07-26T05:01:59.402Z,16.97
2022-07-26T05:04:26.522Z,17.02
2022-07-26T05:06:53.147Z,17.01
2022-07-26T05:09:19.735Z,17.04
2022-07-26T05:11:46.420Z,17.07
2022-07-26T05:14:12.935Z,17.11
2022-07-26T05:16:44.341Z,17.15
2022-07-26T05:19:13.291Z,17.19
2022-07-26T05:21:39.866Z,17.23
2022-07-26T05:24:07.801Z,17.27
2022-07-26T05:26:34.765Z,17.34
2022-07-26T05:29:01.486Z,17.36
2022-07-26T05:31:28.159Z,17.40
2022-07-26T05:33:55.482Z,17.48
2022-07-26T05:36:22.174Z,17.52
2022-07-26T05:38:48.736Z,17.60
2022-07-26T05:41:15.435Z,17.68
2022-07-26T05:43:42.330Z,17.71
2022-07-26T05:46:10.292Z,17.79
2022-07-26T05:48:37.708Z,17.88
2022-07-26T05:51:04.322Z,17.95
2022-07-26T05:53:30.887Z,18.06
2022-07-26T05:55:57.562Z,18.14
2022-07-26T05:58:24.126Z,18.15
2022-07-26T06:00:50.636Z,18.21
2022-07-26T06:03:23.314Z,18.29
2022-07-26T06:05:52.443Z,18.41
2022-07-26T06:08:18.891Z,18.51
2022-07-26T06:10:46.310Z,18.59
2022-07-26T06:13:12.963Z,18.63
2022-07-26T06:15:39.604Z,18.67
2022-07-26T06:18:06.665Z,18.70
2022-07-26T06:20:33.714Z,18.87
2022-07-26T06:23:00.813Z,19.01
2022-07-26T06:25:27.582Z,19.20
2022-07-26T06:27:54.119Z,19.20
2022-07-26T06:30:20.643Z,19.19
2022-07-26T06:32:47.446Z,19.28
2022-07-26T06:35:14.911Z,19.31
2022-07-26T06:37:42.585Z,19.35
2022-07-26T06:40:10.733Z,19.40
2022-07-26T06:42:37.702Z,19.43
2022-07-26T06:45:05.595Z,19.51
2022-07-26T06:47:32.404Z,19.62
2022-07-26T06:49:58.951Z,19.70
2022-07-26T06:52:25.842Z,19.72
2022-07-26T06:54:52.541Z,19.75
2022-07-26T06:57:19.168Z,19.85
2022-07-26T06:59:45.687Z,19.71
2022-07-26T07:02:12.443Z,19.58
2022-07-26T07:04:39.055Z,19.56
2022-07-26T07:07:06.542Z,19.39
2022-07-26T07:09:33.934Z,19.02
2022-07-26T07:12:10.021Z,18.66
2022-07-26T07:14:37.682Z,18.40
2022-07-26T07:17:13.016Z,18.26
2022-07-26T07:19:41.942Z,17.99
2022-07-26T07:22:12.542Z,17.88
2022-07-26T07:24:40.242Z,17.76
2022-07-26T07:27:06.988Z,17.71
2022-07-26T07:29:33.890Z,17.61
2022-07-26T07:32:00.553Z,17.62
2022-07-26T07:34:30.318Z,17.73
2022-07-26T07:36:57.627Z,17.92
2022-07-26T07:39:24.362Z,18.06
2022-07-26T07:42:01.125Z,18.15
2022-07-26T07:44:27.906Z,18.29
2022-07-26T07:46:54.584Z,18.30
2022-07-26T07:49:22.428Z,18.45
2022-07-26T07:51:49.204Z,18.74
2022-07-26T07:54:16.180Z,19.11
2022-07-26T07:56:43.603Z,19.41
2022-07-26T07:59:10.679Z,19.74
2022-07-26T08:01:40.226Z,20.19
2022-07-26T08:04:08.765Z,20.88
2022-07-26T08:06:36.287Z,21.49
2022-07-26T08:09:04.352Z,21.61
2022-07-26T08:11:33.845Z,22.00
2022-07-26T08:14:01.206Z,22.10
2022-07-26T08:16:27.811Z,21.95
2022-07-26T08:19:07.740Z,21.86
2022-07-26T08:21:35.448Z,21.61
2022-07-26T08:24:02.521Z,21.55
2022-07-26T08:26:29.133Z,21.44
2022-07-26T08:29:00.352Z,21.35
2022-07-26T08:31:28.549Z,21.30
2022-07-26T08:33:55.585Z,21.32
2022-07-26T08:36:22.163Z,21.50
2022-07-26T08:38:48.890Z,21.78
2022-07-26T08:41:17.915Z,21.83
2022-07-26T08:43:53.204Z,21.90
2022-07-26T08:46:27.392Z,21.58
2022-07-26T08:48:55.887Z,21.44
2022-07-26T08:51:23.921Z,20.93
2022-07-26T08:53:52.719Z,20.69
2022-07-26T08:56:19.232Z,20.52
2022-07-26T08:58:46.935Z,20.45
2022-07-26T09:01:14.231Z,20.41
2022-07-26T09:03:45.092Z,20.52
2022-07-26T09:06:26.523Z,20.44
2022-07-26T09:09:10.740Z,20.49
2022-07-26T09:11:37.893Z,20.70
2022-07-26T09:14:05.741Z,21.16
2022-07-26T09:16:37.292Z,21.93
2022-07-26T09:19:19.301Z,23.18
2022-07-26T09:21:46.755Z,23.29
2022-07-26T09:24:14.340Z,22.73
2022-07-26T09:26:41.056Z,22.00
2022-07-26T09:29:11.274Z,21.32
2022-07-26T09:31:39.031Z,20.96
2022-07-26T09:34:07.176Z,20.89
2022-07-26T09:36:34.059Z,20.80
2022-07-26T09:39:03.495Z,20.62
2022-07-26T09:41:37.055Z,20.67
2022-07-26T09:44:05.997Z,20.77
2022-07-26T09:46:34.334Z,21.02
2022-07-26T09:49:18.683Z,21.53
2022-07-26T09:51:46.962Z,21.54
2022-07-26T09:54:28.951Z,21.18
2022-07-26T09:56:55.509Z,21.13
2022-07-26T09:59:24.553Z,21.10
2022-07-26T10:01:52.990Z,21.58
2022-07-26T10:04:19.856Z,23.19
2022-07-26T10:06:47.569Z,24.55
2022-07-26T10:09:15.161Z,25.88
2022-07-26T10:11:54.377Z,26.52
2022-07-26T10:14:33.428Z,27.79
2022-07-26T10:17:01.308Z,28.20
2022-07-26T10:19:45.629Z,27.86
2022-07-26T10:22:27.782Z,27.18
2022-07-26T10:24:58.157Z,26.65
2022-07-26T10:27:41.226Z,26.48
2022-07-26T10:30:34.256Z,26.67
2022-07-26T10:33:10.619Z,26.31
2022-07-26T10:35:40.953Z,25.65
2022-07-26T10:38:14.408Z,25.58
2022-07-26T10:41:04.657Z,26.98
2022-07-26T10:43:41.081Z,28.25
2022-07-26T10:46:31.105Z,28.23
2022-07-26T10:49:05.158Z,27.75
2022-07-26T10:51:37.110Z,26.88
2022-07-26T10:54:14.177Z,25.91
2022-07-26T10:56:41.113Z,25.50
2022-07-26T10:59:08.198Z,25.02
2022-07-26T11:01:43.086Z,24.65
2022-07-26T11:04:22.679Z,25.50
2022-07-26T11:06:49.727Z,27.15
2022-07-26T11:09:18.884Z,28.53
2022-07-26T11:11:48.547Z,27.57
2022-07-26T11:14:17.855Z,26.55
2022-07-26T11:16:50.994Z,25.63
2022-07-26T11:19:34.737Z,24.76
2022-07-26T11:22:10.989Z,24.25
2022-07-26T11:24:41.215Z,25.51
2022-07-26T11:27:08.023Z,27.34
2022-07-26T11:29:40.740Z,28.50
2022-07-26T11:32:28.406Z,29.26
2022-07-26T11:35:02.156Z,29.67
2022-07-26T11:37:30.039Z,29.67
2022-07-26T11:39:57.024Z,30.28
2022-07-26T11:42:23.635Z,30.20
2022-07-26T11:44:50.677Z,30.64
2022-07-26T11:47:24.332Z,30.18
2022-07-26T11:50:12.391Z,29.19
2022-07-26T11:52:39.774Z,28.88
2022-07-26T11:55:07.191Z,27.33
2022-07-26T11:57:33.792Z,26.04
2022-07-26T12:00:00.939Z,25.95
2022-07-26T12:02:28.998Z,26.43
2022-07-26T12:05:20.278Z,26.80
2022-07-26T12:08:03.063Z,26.81
2022-07-26T12:10:30.284Z,26.09
2022-07-26T12:13:14.167Z,25.29
2022-07-26T12:15:48.562Z,24.56
2022-07-26T12:18:28.751Z,23.94
2022-07-26T12:21:04.467Z,23.71
2022-07-26T12:23:51.082Z,24.48
2022-07-26T12:26:26.850Z,24.11
2022-07-26T12:28:54.491Z,23.59
2022-07-26T12:31:31.666Z,23.20
2022-07-26T12:33:59.130Z,22.68
2022-07-26T12:36:28.222Z,22.20
2022-07-26T12:38:57.054Z,22.90
2022-07-26T12:41:37.461Z,23.60
2022-07-26T12:44:08.579Z,24.91
2022-07-26T12:46:36.337Z,25.52
2022-07-26T12:49:06.432Z,25.50
2022-07-26T12:51:33.644Z,25.50
2022-07-26T12:54:00.259Z,26.56
2022-07-26T12:56:26.944Z,27.47
2022-07-26T12:58:54.294Z,28.02
2022-07-26T13:01:21.087Z,29.27
2022-07-26T13:03:47.910Z,30.25
2022-07-26T13:06:14.460Z,29.54
2022-07-26T13:08:41.099Z,28.90
2022-07-26T13:11:07.863Z,28.58
2022-07-26T13:13:34.649Z,27.99
2022-07-26T13:16:01.176Z,27.49
2022-07-26T13:18:27.928Z,26.48
2022-07-26T13:20:54.550Z,25.85
2022-07-26T13:23:21.724Z,25.30
2022-07-26T13:25:49.896Z,25.10
2022-07-26T13:28:17.188Z,25.92
2022-07-26T13:30:45.238Z,27.25
2022-07-26T13:33:12.512Z,28.06
2022-07-26T13:35:41.311Z,27.58
2022-07-26T13:38:08.692Z,27.79
2022-07-26T13:40:36.147Z,28.18
2022-07-26T13:43:03.335Z,27.94
2022-07-26T13:45:30.029Z,26.57
2022-07-26T13:47:59.233Z,25.79
2022-07-26T13:50:29.581Z,24.97
2022-07-26T13:52:56.979Z,25.19
2022-07-26T13:55:24.072Z,26.45
2022-07-26T13:57:55.937Z,27.60
2022-07-26T14:00:28.996Z,29.42
2022-07-26T14:02:57.519Z,29.75
2022-07-26T14:05:24.737Z,29.55
2022-07-26T14:07:51.600Z,28.91
2022-07-26T14:10:18.309Z,28.45
2022-07-26T14:12:44.909Z,29.12
2022-07-26T14:15:16.677Z,30.03
2022-07-26T14:17:47.345Z,31.00
2022-07-26T14:20:14.906Z,31.34
2022-07-26T14:22:41.480Z,31.59
2022-07-26T14:25:08.426Z,31.41
2022-07-26T14:27:35.187Z,31.01
2022-07-26T14:30:02.036Z,31.54
2022-07-26T14:32:28.550Z,30.44
2022-07-26T14:34:55.219Z,29.98
2022-07-26T14:37:43.684Z,30.16
2022-07-26T14:40:09.181Z,28.92
2022-07-26T14:42:35.766Z,27.30
2022-07-26T14:45:02.312Z,26.53
2022-07-26T14:47:28.990Z,25.48
2022-07-26T14:49:55.583Z,25.06
2022-07-26T14:52:22.382Z,24.90
2022-07-26T14:54:49.059Z,24.98
2022-07-26T14:57:15.650Z,25.25
2022-07-26T14:59:42.174Z,25.15
2022-07-26T15:02:09.852Z,26.05
2022-07-26T15:04:36.474Z,28.13
2022-07-26T15:07:03.090Z,29.32
2022-07-26T15:09:29.811Z,28.66
2022-07-26T15:11:56.366Z,27.51
2022-07-26T15:14:22.921Z,25.80
2022-07-26T15:16:49.649Z,24.74
2022-07-26T15:19:16.167Z,24.05
2022-07-26T15:21:42.807Z,23.54
2022-07-26T15:24:10.390Z,22.91
2022-07-26T15:26:37.168Z,22.49
2022-07-26T15:29:03.735Z,22.39
2022-07-26T15:31:37.358Z,22.37
2022-07-26T15:34:04.776Z,22.65
2022-07-26T15:36:31.538Z,22.62
2022-07-26T15:39:05.237Z,22.41
2022-07-26T15:41:42.651Z,21.88
2022-07-26T15:44:11.556Z,21.49
2022-07-26T15:46:39.109Z,21.35
2022-07-26T15:49:07.372Z,21.20
2022-07-26T15:51:34.209Z,21.00
2022-07-26T15:54:02.513Z,20.66
2022-07-26T15:56:29.206Z,20.41
2022-07-26T15:58:55.732Z,20.21
2022-07-26T16:01:22.325Z,19.99
2022-07-26T16:03:49.054Z,19.82
2022-07-26T16:06:15.580Z,19.68
2022-07-26T16:09:05.528Z,19.71
2022-07-26T16:11:29.711Z,19.80
2022-07-26T16:14:01.694Z,19.65
2022-07-26T16:16:32.256Z,19.68
2022-07-26T16:18:59.029Z,19.63
2022-07-26T16:21:25.568Z,19.51
2022-07-26T16:23:52.287Z,19.30
2022-07-26T16:26:18.858Z,19.25
2022-07-26T16:28:45.796Z,19.01
2022-07-26T16:31:12.730Z,18.84
2022-07-26T16:33:46.016Z,18.70
2022-07-26T16:36:14.414Z,18.54
2022-07-26T16:38:41.026Z,18.47
2022-07-26T16:41:07.668Z,18.38
2022-07-26T16:43:34.830Z,18.38
2022-07-26T16:46:01.472Z,18.40
2022-07-26T16:48:28.192Z,18.39
2022-07-26T16:50:55.060Z,18.39
2022-07-26T16:53:21.806Z,18.45
2022-07-26T16:55:51.353Z,18.47
2022-07-26T16:58:18.878Z,18.58
2022-07-26T17:00:45.799Z,18.76
2022-07-26T17:03:13.566Z,18.96
2022-07-26T17:05:43.858Z,18.97
2022-07-26T17:08:10.432Z,19.04
2022-07-26T17:10:37.012Z,19.10
2022-07-26T17:13:03.972Z,19.14
2022-07-26T17:15:30.516Z,19.05
2022-07-26T17:17:57.167Z,18.99
2022-07-26T17:20:23.826Z,18.85
2022-07-26T17:22:50.480Z,18.81
2022-07-26T17:25:17.054Z,18.66
2022-07-26T17:27:43.978Z,18.66
2022-07-26T17:30:11.182Z,18.64
2022-07-26T17:32:38.148Z,18.63
2022-07-26T17:35:08.752Z,18.59
2022-07-26T17:37:35.365Z,18.64
2022-07-26T17:40:04.981Z,18.55
2022-07-26T17:42:35.384Z,18.46
2022-07-26T17:45:02.018Z,18.34
2022-07-26T17:47:30.400Z,18.22
2022-07-26T17:50:14.214Z,18.02
2022-07-26T17:52:46.599Z,17.88
2022-07-26T17:55:13.271Z,17.83
2022-07-26T17:57:40.034Z,17.77
2022-07-26T18:00:07.207Z,17.74
2022-07-26T18:02:33.922Z,17.74
2022-07-26T18:05:00.536Z,17.74
2022-07-26T18:07:27.249Z,17.71
2022-07-26T18:09:54.004Z,17.76
2022-07-26T18:12:20.781Z,17.71
2022-07-26T18:14:47.311Z,17.68
2022-07-26T18:17:13.954Z,17.66
2022-07-26T18:19:40.504Z,17.59
2022-07-26T18:22:07.052Z,17.58
2022-07-26T18:24:33.768Z,17.56
2022-07-26T18:27:00.316Z,17.57
2022-07-26T18:29:29.080Z,17.48
2022-07-26T18:31:58.637Z,17.47
2022-07-26T18:34:25.215Z,17.41
2022-07-26T18:36:51.749Z,17.31
2022-07-26T18:39:18.419Z,17.19
2022-07-26T18:41:45.414Z,17.10
2022-07-26T18:44:12.794Z,17.03
2022-07-26T18:46:40.071Z,16.95
2022-07-26T18:49:07.145Z,16.93
2022-07-26T18:51:33.844Z,16.88
2022-07-26T18:54:00.908Z,16.80
2022-07-26T18:56:27.470Z,16.74
2022-07-26T18:58:54.036Z,16.66
2022-07-26T19:01:20.766Z,16.56
2022-07-26T19:03:47.409Z,16.46
2022-07-26T19:06:14.040Z,16.37
2022-07-26T19:08:40.772Z,16.30
2022-07-26T19:11:07.370Z,16.24
2022-07-26T19:13:34.082Z,16.20
2022-07-26T19:16:00.835Z,16.15
2022-07-26T19:18:27.503Z,16.12
2022-07-26T19:20:54.021Z,16.07
2022-07-26T19:23:21.404Z,16.04
2022-07-26T19:25:47.980Z,16.00
2022-07-26T19:28:14.487Z,15.98
2022-07-26T19:30:41.182Z,15.97
2022-07-26T19:33:07.738Z,15.92
2022-07-26T19:35:34.360Z,15.89
2022-07-26T19:38:01.063Z,15.86
2022-07-26T19:40:27.923Z,15.84
2022-07-26T19:42:54.439Z,15.81
2022-07-26T19:45:21.193Z,15.78
2022-07-26T19:47:48.023Z,15.76
2022-07-26T19:50:14.624Z,15.71
2022-07-26T19:52:41.608Z,15.65
2022-07-26T19:55:09.036Z,15.62
2022-07-26T19:57:35.882Z,15.58
2022-07-26T20:00:05.911Z,15.56
2022-07-26T20:02:32.516Z,15.55
2022-07-26T20:04:59.099Z,15.52
2022-07-26T20:07:26.135Z,15.51
2022-07-26T20:09:53.627Z,15.48
2022-07-26T20:12:20.541Z,15.44
2022-07-26T20:14:47.652Z,15.40
2022-07-26T20:17:14.313Z,15.36
2022-07-26T20:19:41.218Z,15.33
2022-07-26T20:22:08.010Z,15.29
2022-07-26T20:24:34.583Z,15.27
2022-07-26T20:27:01.074Z,15.26
2022-07-26T20:29:27.734Z,15.24
2022-07-26T20:31:54.228Z,15.25
2022-07-26T20:34:20.805Z,15.23
2022-07-26T20:36:47.541Z,15.24
2022-07-26T20:39:15.130Z,15.23
2022-07-26T20:41:41.890Z,15.22
2022-07-26T20:44:08.754Z,15.21
2022-07-26T20:46:39.904Z,15.23
2022-07-26T20:49:07.342Z,15.21
2022-07-26T20:51:34.167Z,15.21
2022-07-26T20:54:00.761Z,15.18
2022-07-26T20:56:27.398Z,15.14
2022-07-26T20:58:55.699Z,15.10
2022-07-26T21:01:22.463Z,15.05
2022-07-26T21:03:49.102Z,14.98
2022-07-26T21:06:15.778Z,14.92
2022-07-26T21:08:42.732Z,14.88
2022-07-26T21:11:09.325Z,14.85
2022-07-26T21:13:36.597Z,14.83
2022-07-26T21:16:03.750Z,14.79
2022-07-26T21:18:31.248Z,14.79
2022-07-26T21:20:58.155Z,14.79
2022-07-26T21:23:25.281Z,14.78
2022-07-26T21:25:57.994Z,14.78
2022-07-26T21:28:27.404Z,14.77
2022-07-26T21:30:54.203Z,14.78
2022-07-26T21:33:20.873Z,14.78
2022-07-26T21:35:47.628Z,14.78
2022-07-26T21:38:14.156Z,14.78
2022-07-26T21:40:40.709Z,14.80
2022-07-26T21:43:07.408Z,14.79
2022-07-26T21:45:34.033Z,14.79
2022-07-26T21:48:00.682Z,14.79
2022-07-26T21:50:28.010Z,14.79
2022-07-26T21:52:54.695Z,14.80
2022-07-26T21:55:21.282Z,14.79
2022-07-26T21:57:48.247Z,14.78
2022-07-26T22:00:16.158Z,14.76
2022-07-26T22:02:42.786Z,14.76
2022-07-26T22:05:30.078Z,14.74
2022-07-26T22:07:56.624Z,14.72
2022-07-26T22:10:23.296Z,14.70
2022-07-26T22:12:49.984Z,14.69
2022-07-26T22:15:16.578Z,14.67
2022-07-26T22:17:43.127Z,14.64
2022-07-26T22:20:10.848Z,14.63
2022-07-26T22:22:38.282Z,14.61
2022-07-26T22:25:05.855Z,14.60
2022-07-26T22:27:32.529Z,14.60
2022-07-26T22:29:59.106Z,14.57
2022-07-26T22:32:26.526Z,14.55
2022-07-26T22:34:53.182Z,14.54
2022-07-26T22:37:19.758Z,14.52
2022-07-26T22:39:46.341Z,14.48
2022-07-26T22:42:15.819Z,14.44
2022-07-26T22:44:42.927Z,14.41
2022-07-26T22:47:09.492Z,14.36
2022-07-26T22:49:36.303Z,14.31
2022-07-26T22:52:02.866Z,14.29
2022-07-26T22:54:29.407Z,14.25
2022-07-26T22:56:56.134Z,14.19
2022-07-26T22:59:25.230Z,14.17
2022-07-26T23:01:51.898Z,14.12
2022-07-26T23:04:18.659Z,14.09
2022-07-26T23:06:45.734Z,14.05
2022-07-26T23:09:13.095Z,14.03
2022-07-26T23:11:39.996Z,13.96
2022-07-26T23:14:06.567Z,13.92
2022-07-26T23:16:33.522Z,13.86
2022-07-26T23:19:00.294Z,13.81
2022-07-26T23:21:27.744Z,13.78
2022-07-26T23:23:54.862Z,13.76
2022-07-26T23:26:21.518Z,13.73
2022-07-26T23:28:48.302Z,13.68
2022-07-26T23:31:14.911Z,13.68
2022-07-26T23:33:52.741Z,13.66
2022-07-26T23:36:25.522Z,13.64
2022-07-26T23:38:52.298Z,13.64
2022-07-26T23:41:19.403Z,13.64
2022-07-26T23:43:46.028Z,13.64
2022-07-26T23:46:12.897Z,13.62
2022-07-26T23:48:39.512Z,13.62
2022-07-26T23:51:06.117Z,13.59
2022-07-26T23:53:32.738Z,13.52
2022-07-26T23:55:59.368Z,13.47
2022-07-26T23:58:28.892Z,13.40
